createdAt,value
2018-09-17T00:00:08.352Z,65.80
2018-09-17T00:02:39.352Z,65.80
2018-09-17T00:05:10.485Z,66.50
2018-09-17T00:07:41.530Z,65.90
2018-09-17T00:10:12.539Z,65.90
2018-09-17T00:12:43.442Z,66.10
2018-09-17T00:15:14.234Z,65.90
2018-09-17T00:17:45.075Z,66.40
2018-09-17T00:20:15.920Z,67.10
2018-09-17T00:22:46.781Z,67.00
2018-09-17T00:25:17.662Z,67.30
2018-09-17T00:27:48.464Z,67.40
2018-09-17T00:30:19.259Z,67.70
2018-09-17T00:32:50.022Z,66.90
2018-09-17T00:35:20.884Z,66.80
2018-09-17T00:37:51.692Z,66.60
2018-09-17T00:40:22.732Z,67.70
2018-09-17T00:42:53.573Z,67.60
2018-09-17T00:45:24.376Z,68.00
2018-09-17T00:47:55.616Z,67.30
2018-09-17T00:50:26.565Z,67.70
2018-09-17T00:52:57.427Z,66.60
2018-09-17T00:55:28.285Z,66.80
2018-09-17T00:57:59.123Z,66.70
2018-09-17T01:00:29.939Z,66.80
2018-09-17T01:03:00.839Z,66.80
2018-09-17T01:05:31.829Z,67.30
2018-09-17T01:08:02.678Z,67.30
2018-09-17T01:10:33.548Z,67.60
2018-09-17T01:13:04.359Z,67.80
2018-09-17T01:15:35.277Z,66.80
2018-09-17T01:18:06.140Z,66.40
2018-09-17T01:20:37.615Z,66.50
2018-09-17T01:23:08.531Z,66.90
2018-09-17T01:25:39.326Z,66.80
2018-09-17T01:28:10.199Z,66.50
2018-09-17T01:30:41.041Z,66.40
2018-09-17T01:33:11.841Z,66.30
2018-09-17T01:35:42.717Z,66.30
2018-09-17T01:38:14.125Z,66.10
2018-09-17T01:40:44.996Z,66.50
2018-09-17T01:43:16.460Z,67.10
2018-09-17T01:45:47.759Z,67.20
2018-09-17T01:48:19.086Z,67.40
2018-09-17T01:50:50.205Z,67.50
2018-09-17T01:53:21.608Z,67.00
2018-09-17T01:55:52.594Z,67.50
2018-09-17T01:58:24.003Z,67.30
2018-09-17T02:00:55.407Z,66.70
2018-09-17T02:03:27.087Z,66.00
2018-09-17T02:05:58.493Z,66.10
2018-09-17T02:08:29.674Z,67.10
2018-09-17T02:11:00.908Z,66.40
2018-09-17T02:13:32.141Z,67.00
2018-09-17T02:16:03.073Z,67.30
2018-09-17T02:18:34.137Z,66.60
2018-09-17T02:21:05.267Z,66.70
2018-09-17T02:23:36.429Z,67.00
2018-09-17T02:26:07.347Z,67.20
2018-09-17T02:28:38.482Z,67.20
2018-09-17T02:31:09.420Z,67.40
2018-09-17T02:33:40.283Z,67.60
2018-09-17T02:36:11.072Z,67.60
2018-09-17T02:38:41.897Z,66.80
2018-09-17T02:41:12.707Z,67.20
2018-09-17T02:43:43.536Z,67.20
2018-09-17T02:46:14.409Z,66.90
2018-09-17T02:48:45.194Z,67.30
2018-09-17T02:51:15.965Z,66.80
2018-09-17T02:53:46.793Z,67.00
2018-09-17T02:56:17.581Z,66.80
2018-09-17T02:58:48.485Z,67.10
2018-09-17T03:01:19.356Z,67.50
2018-09-17T03:03:50.814Z,67.60
2018-09-17T03:06:21.577Z,67.30
2018-09-17T03:08:52.370Z,67.30
2018-09-17T03:11:23.339Z,67.40
2018-09-17T03:13:54.160Z,67.10
2018-09-17T03:16:25.013Z,67.60
2018-09-17T03:18:57.089Z,67.30
2018-09-17T03:21:28.057Z,66.90
2018-09-17T03:23:58.827Z,67.30
2018-09-17T03:26:29.623Z,67.30
2018-09-17T03:29:00.498Z,67.50
2018-09-17T03:31:31.517Z,67.50
2018-09-17T03:34:02.379Z,68.00
2018-09-17T03:36:33.176Z,68.10
2018-09-17T03:39:04.963Z,68.30
2018-09-17T03:41:36.217Z,68.00
2018-09-17T03:44:07.075Z,67.70
2018-09-17T03:46:38.125Z,67.80
2018-09-17T03:49:08.961Z,67.70
2018-09-17T03:51:39.880Z,68.20
2018-09-17T03:54:10.673Z,68.00
2018-09-17T03:56:41.535Z,68.10
2018-09-17T03:59:12.354Z,67.70
2018-09-17T04:01:43.215Z,68.00
2018-09-17T04:04:14.031Z,68.10
2018-09-17T04:06:44.804Z,68.60
2018-09-17T04:09:15.669Z,69.10
2018-09-17T04:11:46.456Z,68.80
2018-09-17T04:14:17.292Z,69.00
2018-09-17T04:16:48.107Z,69.20
2018-09-17T04:19:18.915Z,69.20
2018-09-17T04:21:49.736Z,68.50
2018-09-17T04:24:20.614Z,69.00
2018-09-17T04:26:51.376Z,69.60
2018-09-17T04:29:22.178Z,69.10
2018-09-17T04:31:52.977Z,69.40
2018-09-17T04:34:23.879Z,69.50
2018-09-17T04:36:54.648Z,70.20
2018-09-17T04:39:27.019Z,70.00
2018-09-17T04:41:57.857Z,69.80
2018-09-17T04:44:28.614Z,71.10
2018-09-17T04:46:59.451Z,70.20
2018-09-17T04:49:30.529Z,70.00
2018-09-17T04:52:01.401Z,70.40
2018-09-17T04:54:32.356Z,70.40
2018-09-17T04:57:03.219Z,70.30
2018-09-17T04:59:34.075Z,69.70
2018-09-17T05:02:04.893Z,70.10
2018-09-17T05:04:35.804Z,70.10
2018-09-17T05:07:06.671Z,69.70
2018-09-17T05:09:37.608Z,69.40
2018-09-17T05:12:09.100Z,69.80
2018-09-17T05:14:40.057Z,69.30
2018-09-17T05:17:11.080Z,69.20
2018-09-17T05:19:41.997Z,69.60
2018-09-17T05:22:12.843Z,69.60
2018-09-17T05:24:43.769Z,69.10
2018-09-17T05:27:14.584Z,69.10
2018-09-17T05:29:45.450Z,68.00
2018-09-17T05:32:16.323Z,67.50
2018-09-17T05:34:47.225Z,66.80
2018-09-17T05:37:18.103Z,66.80
2018-09-17T05:39:49.046Z,65.60
2018-09-17T05:42:20.288Z,63.80
2018-09-17T05:44:51.105Z,62.50
2018-09-17T05:47:21.953Z,61.80
2018-09-17T05:49:52.766Z,61.10
2018-09-17T05:52:23.590Z,60.80
2018-09-17T05:54:54.395Z,60.20
2018-09-17T05:57:25.213Z,59.00
2018-09-17T05:59:56.199Z,58.50
2018-09-17T06:02:27.253Z,57.90
2018-09-17T06:04:58.148Z,58.30
2018-09-17T06:07:29.221Z,57.70
2018-09-17T06:10:00.091Z,56.60
2018-09-17T06:12:31.118Z,57.00
2018-09-17T06:15:02.039Z,56.40
2018-09-17T06:17:33.002Z,56.20
2018-09-17T06:20:03.804Z,56.20
2018-09-17T06:22:34.787Z,55.90
2018-09-17T06:25:05.953Z,56.40
2018-09-17T06:27:36.803Z,57.00
2018-09-17T06:30:08.725Z,55.80
2018-09-17T06:32:39.974Z,55.20
2018-09-17T06:35:10.820Z,54.60
2018-09-17T06:37:41.867Z,53.20
2018-09-17T06:40:12.657Z,53.60
2018-09-17T06:42:43.434Z,53.20
2018-09-17T06:45:14.337Z,53.60
2018-09-17T06:47:45.190Z,54.10
2018-09-17T06:50:16.039Z,54.00
2018-09-17T06:52:46.861Z,54.50
2018-09-17T06:55:17.805Z,54.30
2018-09-17T06:57:48.660Z,53.80
2018-09-17T07:00:19.524Z,54.00
2018-09-17T07:02:50.421Z,54.40
2018-09-17T07:05:21.352Z,54.90
2018-09-17T07:07:52.232Z,55.30
2018-09-17T07:10:23.190Z,54.30
2018-09-17T07:12:54.091Z,54.60
2018-09-17T07:15:25.740Z,54.50
2018-09-17T07:17:56.689Z,54.50
2018-09-17T07:20:27.486Z,53.80
2018-09-17T07:22:58.359Z,53.20
2018-09-17T07:25:29.456Z,52.00
2018-09-17T07:28:00.217Z,52.40
2018-09-17T07:30:31.209Z,51.20
2018-09-17T07:33:02.049Z,50.30
2018-09-17T07:35:33.188Z,49.60
2018-09-17T07:38:03.976Z,49.20
2018-09-17T07:40:34.856Z,49.50
2018-09-17T07:43:05.931Z,49.00
2018-09-17T07:45:36.781Z,47.70
2018-09-17T07:48:07.761Z,49.40
2018-09-17T07:50:38.611Z,49.80
2018-09-17T07:53:09.999Z,50.20
2018-09-17T07:55:40.850Z,50.70
2018-09-17T07:58:11.670Z,51.30
2018-09-17T08:00:42.632Z,52.80
2018-09-17T08:03:13.451Z,52.70
2018-09-17T08:05:44.368Z,52.20
2018-09-17T08:08:15.292Z,51.80
2018-09-17T08:10:46.209Z,50.50
2018-09-17T08:13:17.156Z,48.60
2018-09-17T08:15:48.009Z,46.90
2018-09-17T08:18:18.876Z,46.20
2018-09-17T08:20:49.977Z,44.70
2018-09-17T08:23:20.824Z,44.60
2018-09-17T08:25:51.718Z,44.00
2018-09-17T08:28:22.574Z,43.80
2018-09-17T08:30:53.432Z,43.90
2018-09-17T08:33:24.276Z,43.70
2018-09-17T08:35:55.191Z,43.10
2018-09-17T08:38:26.056Z,43.40
2018-09-17T08:40:56.981Z,43.40
2018-09-17T08:43:27.935Z,43.20
2018-09-17T08:45:58.860Z,42.80
2018-09-17T08:48:29.801Z,41.60
2018-09-17T08:51:00.748Z,42.20
2018-09-17T08:53:31.782Z,43.00
2018-09-17T08:56:07.496Z,42.00
2018-09-17T08:58:43.242Z,42.70
2018-09-17T09:01:19.030Z,42.10
2018-09-17T09:03:54.876Z,41.40
2018-09-17T09:06:29.716Z,41.30
2018-09-17T09:09:00.529Z,41.20
2018-09-17T09:11:36.375Z,41.90
2018-09-17T09:14:10.110Z,41.30
2018-09-17T09:16:40.962Z,40.90
2018-09-17T09:19:11.912Z,40.00
2018-09-17T09:21:42.811Z,38.50
2018-09-17T09:24:13.604Z,37.30
2018-09-17T09:26:44.465Z,37.40
2018-09-17T09:29:15.309Z,38.10
2018-09-17T09:31:46.198Z,37.90
2018-09-17T09:34:17.081Z,38.30
2018-09-17T09:36:47.921Z,37.90
2018-09-17T09:39:18.825Z,39.80
2018-09-17T09:41:49.720Z,39.50
2018-09-17T09:44:20.518Z,37.70
2018-09-17T09:46:51.355Z,36.90
2018-09-17T09:49:22.260Z,36.60
2018-09-17T09:51:53.036Z,35.50
2018-09-17T09:54:23.935Z,34.60
2018-09-17T09:56:55.015Z,35.40
2018-09-17T09:59:25.928Z,35.40
2018-09-17T10:02:01.824Z,35.10
2018-09-17T10:04:32.665Z,34.00
2018-09-17T10:07:04.064Z,35.50
2018-09-17T10:09:40.264Z,37.70
2018-09-17T10:12:16.189Z,39.20
2018-09-17T10:14:52.129Z,40.20
2018-09-17T10:17:28.013Z,38.90
2018-09-17T10:19:58.859Z,37.90
2018-09-17T10:22:30.103Z,37.60
2018-09-17T10:25:00.865Z,37.50
2018-09-17T10:27:31.840Z,36.70
2018-09-17T10:30:02.856Z,36.50
2018-09-17T10:32:33.783Z,36.40
2018-09-17T10:35:05.406Z,37.30
2018-09-17T10:37:36.548Z,38.70
2018-09-17T10:40:07.446Z,39.60
2018-09-17T10:42:38.349Z,40.40
2018-09-17T10:45:09.152Z,40.30
2018-09-17T10:47:39.953Z,39.50
2018-09-17T10:50:10.903Z,38.60
2018-09-17T10:52:42.159Z,38.60
2018-09-17T10:55:13.965Z,38.60
2018-09-17T10:57:44.748Z,39.20
2018-09-17T11:00:15.632Z,39.60
2018-09-17T11:02:46.456Z,39.40
2018-09-17T11:05:17.372Z,39.30
2018-09-17T11:07:48.141Z,40.10
2018-09-17T11:10:18.993Z,40.50
2018-09-17T11:12:50.506Z,40.80
2018-09-17T11:15:21.406Z,41.60
2018-09-17T11:17:52.245Z,41.30
2018-09-17T11:20:23.103Z,41.30
2018-09-17T11:22:53.923Z,42.10
2018-09-17T11:25:24.774Z,43.00
2018-09-17T11:27:55.669Z,43.70
2018-09-17T11:30:26.513Z,43.00
2018-09-17T11:32:57.414Z,42.90
2018-09-17T11:35:28.345Z,42.20
2018-09-17T11:37:59.141Z,43.00
2018-09-17T11:40:29.989Z,43.70
2018-09-17T11:43:00.751Z,43.70
2018-09-17T11:45:31.669Z,43.60
2018-09-17T11:48:02.489Z,43.40
2018-09-17T11:50:33.368Z,42.80
2018-09-17T11:53:04.269Z,43.10
2018-09-17T11:55:35.304Z,43.60
2018-09-17T11:58:06.149Z,42.80
2018-09-17T12:00:41.941Z,43.20
2018-09-17T12:03:17.647Z,43.90
2018-09-17T12:05:53.500Z,44.30
2018-09-17T12:08:24.384Z,44.70
2018-09-17T12:10:55.333Z,44.60
2018-09-17T12:13:26.222Z,45.00
2018-09-17T12:15:56.979Z,45.00
2018-09-17T12:18:27.785Z,44.90
2018-09-17T12:20:58.605Z,45.00
2018-09-17T12:23:29.432Z,45.60
2018-09-17T12:26:00.348Z,46.00
2018-09-17T12:28:31.309Z,47.00
2018-09-17T12:31:02.120Z,47.60
2018-09-17T12:33:33.037Z,47.80
2018-09-17T12:36:03.966Z,47.80
2018-09-17T12:38:34.633Z,48.00
2018-09-17T12:41:05.480Z,48.30
2018-09-17T12:43:36.727Z,48.00
2018-09-17T12:46:07.551Z,48.90
2018-09-17T12:48:38.452Z,48.60
2018-09-17T12:51:09.296Z,48.80
2018-09-17T12:53:40.309Z,49.00
2018-09-17T12:56:11.159Z,49.10
2018-09-17T12:58:42.064Z,49.50
2018-09-17T13:01:12.884Z,49.00
2018-09-17T13:03:44.502Z,49.30
2018-09-17T13:06:15.372Z,49.20
2018-09-17T13:08:46.171Z,49.40
2018-09-17T13:11:16.994Z,48.70
2018-09-17T13:13:47.813Z,48.60
2018-09-17T13:16:18.627Z,48.70
2018-09-17T13:18:49.497Z,48.60
2018-09-17T13:21:20.315Z,48.60
2018-09-17T13:23:51.119Z,48.90
2018-09-17T13:26:21.905Z,48.40
2018-09-17T13:28:52.774Z,48.40
2018-09-17T13:31:23.625Z,48.50
2018-09-17T13:33:54.435Z,48.20
2018-09-17T13:36:25.360Z,48.20
2018-09-17T13:38:56.410Z,48.10
2018-09-17T13:41:27.256Z,48.90
2018-09-17T13:43:58.112Z,49.10
2018-09-17T13:46:28.912Z,49.00
2018-09-17T13:48:59.671Z,48.10
2018-09-17T13:51:30.487Z,48.70
2018-09-17T13:54:01.357Z,48.50
2018-09-17T13:56:32.218Z,48.40
2018-09-17T13:59:03.093Z,48.70
2018-09-17T14:01:34.105Z,48.40
2018-09-17T14:04:04.845Z,48.50
2018-09-17T14:06:35.602Z,48.70
2018-09-17T14:09:09.969Z,48.70
2018-09-17T14:11:41.497Z,48.90
2018-09-17T14:14:12.288Z,47.80
2018-09-17T14:16:43.179Z,48.60
2018-09-17T14:19:14.014Z,48.60
2018-09-17T14:21:44.780Z,48.50
2018-09-17T14:24:15.574Z,48.20
2018-09-17T14:26:46.575Z,48.80
2018-09-17T14:29:17.437Z,48.50
2018-09-17T14:31:53.345Z,47.70
2018-09-17T14:34:23.687Z,48.00
2018-09-17T14:36:54.518Z,48.20
2018-09-17T14:39:25.283Z,47.90
2018-09-17T14:41:56.195Z,47.40
2018-09-17T14:44:27.052Z,47.50
2018-09-17T14:46:57.825Z,48.00
2018-09-17T14:49:28.628Z,47.30
2018-09-17T14:51:59.516Z,48.20
2018-09-17T14:54:30.389Z,46.80
2018-09-17T14:57:01.107Z,47.20
2018-09-17T14:59:31.970Z,46.70
2018-09-17T15:02:02.812Z,47.00
2018-09-17T15:04:33.817Z,47.20
2018-09-17T15:07:04.574Z,46.80
2018-09-17T15:09:35.424Z,47.70
2018-09-17T15:12:06.374Z,47.90
2018-09-17T15:14:37.272Z,46.90
2018-09-17T15:17:08.249Z,46.60
2018-09-17T15:19:39.042Z,47.10
2018-09-17T15:22:09.861Z,46.50
2018-09-17T15:24:40.747Z,47.30
2018-09-17T15:27:11.610Z,46.90
2018-09-17T15:29:42.727Z,47.00
2018-09-17T15:32:13.702Z,46.40
2018-09-17T15:34:44.782Z,46.40
2018-09-17T15:37:15.757Z,46.40
2018-09-17T15:39:46.659Z,46.50
2018-09-17T15:42:17.587Z,46.40
2018-09-17T15:44:48.442Z,46.50
2018-09-17T15:47:19.412Z,46.30
2018-09-17T15:49:50.329Z,46.70
2018-09-17T15:52:21.356Z,46.50
2018-09-17T15:54:52.188Z,46.10
2018-09-17T15:57:23.056Z,46.60
2018-09-17T15:59:54.019Z,46.60
2018-09-17T16:02:24.991Z,46.50
2018-09-17T16:04:55.983Z,46.30
2018-09-17T16:07:26.850Z,46.20
2018-09-17T16:09:57.750Z,46.90
2018-09-17T16:12:28.672Z,47.20
2018-09-17T16:14:59.556Z,47.20
2018-09-17T16:17:30.533Z,47.30
2018-09-17T16:20:01.668Z,47.20
2018-09-17T16:22:32.480Z,47.40
2018-09-17T16:25:03.300Z,47.40
2018-09-17T16:27:34.288Z,47.40
2018-09-17T16:30:06.042Z,48.00
2018-09-17T16:32:36.893Z,48.50
2018-09-17T16:35:08.194Z,49.40
2018-09-17T16:37:39.455Z,49.90
2018-09-17T16:40:10.371Z,50.40
2018-09-17T16:42:41.277Z,50.50
2018-09-17T16:45:12.123Z,51.20
2018-09-17T16:47:43.117Z,51.30
2018-09-17T16:50:14.192Z,51.40
2018-09-17T16:52:46.289Z,51.70
2018-09-17T16:55:17.311Z,53.00
2018-09-17T16:57:48.295Z,53.10
2018-09-17T17:00:19.283Z,53.40
2018-09-17T17:02:50.115Z,53.60
2018-09-17T17:05:21.137Z,53.60
2018-09-17T17:07:52.049Z,54.00
2018-09-17T17:10:22.975Z,53.80
2018-09-17T17:12:54.043Z,54.30
2018-09-17T17:15:25.327Z,54.20
2018-09-17T17:17:56.386Z,54.70
2018-09-17T17:20:27.433Z,54.60
2018-09-17T17:22:58.296Z,54.50
2018-09-17T17:25:29.217Z,54.80
2018-09-17T17:28:00.088Z,55.00
2018-09-17T17:30:31.192Z,55.50
2018-09-17T17:33:02.201Z,55.40
2018-09-17T17:35:33.595Z,55.40
2018-09-17T17:38:04.577Z,55.50
2018-09-17T17:40:35.656Z,55.30
2018-09-17T17:43:06.921Z,55.80
2018-09-17T17:45:38.370Z,55.90
2018-09-17T17:48:09.376Z,55.90
2018-09-17T17:50:40.653Z,55.70
2018-09-17T17:53:12.016Z,56.00
2018-09-17T17:55:43.069Z,56.30
2018-09-17T17:58:14.147Z,56.30
2018-09-17T18:00:45.152Z,57.00
2018-09-17T18:03:16.158Z,56.90
2018-09-17T18:05:47.462Z,56.80
2018-09-17T18:08:18.371Z,56.80
2018-09-17T18:10:49.549Z,56.90
2018-09-17T18:13:21.318Z,56.80
2018-09-17T18:15:52.390Z,56.70
2018-09-17T18:18:23.472Z,57.00
2018-09-17T18:20:54.574Z,57.40
2018-09-17T18:23:25.705Z,57.50
2018-09-17T18:25:57.343Z,57.60
2018-09-17T18:28:28.250Z,57.70
2018-09-17T18:30:59.382Z,57.80
2018-09-17T18:33:30.410Z,57.90
2018-09-17T18:36:01.863Z,58.00
2018-09-17T18:38:33.083Z,57.90
2018-09-17T18:41:04.161Z,57.80
2018-09-17T18:43:36.176Z,57.80
2018-09-17T18:46:07.429Z,58.00
2018-09-17T18:48:39.159Z,57.80
2018-09-17T18:51:10.793Z,57.70
2018-09-17T18:53:41.783Z,58.10
2018-09-17T18:56:12.814Z,58.30
2018-09-17T18:58:43.863Z,58.40
2018-09-17T19:01:14.826Z,58.30
2018-09-17T19:03:46.117Z,58.10
2018-09-17T19:06:17.300Z,58.70
2018-09-17T19:08:48.447Z,58.90
2018-09-17T19:11:19.535Z,59.20
2018-09-17T19:13:55.650Z,59.10
2018-09-17T19:16:31.705Z,59.40
2018-09-17T19:19:03.055Z,59.30
2018-09-17T19:21:39.196Z,59.10
2018-09-17T19:24:09.923Z,59.20
2018-09-17T19:26:41.208Z,59.30
2018-09-17T19:29:22.441Z,59.40
2018-09-17T19:31:53.521Z,59.80
2018-09-17T19:34:24.709Z,60.10
2018-09-17T19:36:59.801Z,60.10
2018-09-17T19:39:35.850Z,60.10
2018-09-17T19:42:07.371Z,60.00
2018-09-17T19:44:38.701Z,59.80
2018-09-17T19:47:10.097Z,60.00
2018-09-17T19:49:41.511Z,59.90
2018-09-17T19:52:18.590Z,60.00
2018-09-17T19:54:49.853Z,60.60
2018-09-17T19:57:25.815Z,60.90
2018-09-17T19:59:58.924Z,60.80
2018-09-17T20:02:30.484Z,61.10
2018-09-17T20:06:10.104Z,61.10
2018-09-17T20:08:41.390Z,61.00
2018-09-17T20:11:12.414Z,61.10
2018-09-17T20:13:48.285Z,61.80
2018-09-17T20:16:21.938Z,61.50
2018-09-17T20:18:53.189Z,61.20
2018-09-17T20:21:25.719Z,61.60
2018-09-17T20:23:57.124Z,61.80
2018-09-17T20:26:28.255Z,62.20
2018-09-17T20:28:59.606Z,62.10
2018-09-17T20:31:31.411Z,61.80
2018-09-17T20:34:02.465Z,62.00
2018-09-17T20:36:33.829Z,62.40
2018-09-17T20:39:06.277Z,63.10
2018-09-17T20:41:37.258Z,63.30
2018-09-17T20:44:08.308Z,63.10
2018-09-17T20:46:39.522Z,63.10
2018-09-17T20:49:10.627Z,63.20
2018-09-17T20:51:41.599Z,63.20
2018-09-17T20:54:12.785Z,63.60
2018-09-17T20:56:43.679Z,63.80
2018-09-17T20:59:14.822Z,64.00
2018-09-17T21:01:45.745Z,64.10
2018-09-17T21:04:16.909Z,64.50
2018-09-17T21:06:47.880Z,65.00
2018-09-17T21:09:19.223Z,65.30
2018-09-17T21:11:50.207Z,65.50
2018-09-17T21:14:21.141Z,65.70
2018-09-17T21:16:51.995Z,65.60
2018-09-17T21:19:23.100Z,65.80
2018-09-17T21:21:54.100Z,65.90
2018-09-17T21:24:25.102Z,65.90
2018-09-17T21:26:56.173Z,66.70
2018-09-17T21:29:27.138Z,67.10
2018-09-17T21:31:58.164Z,66.90
2018-09-17T21:34:29.138Z,66.60
2018-09-17T21:37:00.386Z,66.60
2018-09-17T21:39:31.336Z,66.50
2018-09-17T21:42:02.187Z,66.40
2018-09-17T21:44:33.061Z,66.70
2018-09-17T21:47:03.937Z,67.10
2018-09-17T21:49:34.996Z,67.00
2018-09-17T21:52:06.107Z,67.20
2018-09-17T21:54:36.939Z,67.90
2018-09-17T21:57:07.944Z,67.60
2018-09-17T21:59:38.793Z,67.20
2018-09-17T22:02:09.639Z,67.30
2018-09-17T22:04:40.550Z,67.30
2018-09-17T22:07:11.390Z,67.20
2018-09-17T22:09:42.353Z,67.80
2018-09-17T22:12:13.296Z,68.30
2018-09-17T22:14:44.204Z,67.90
2018-09-17T22:17:15.014Z,67.40
2018-09-17T22:19:45.952Z,67.70
2018-09-17T22:22:16.795Z,67.70
2018-09-17T22:24:47.679Z,68.10
2018-09-17T22:27:18.609Z,68.80
2018-09-17T22:29:49.669Z,69.00
2018-09-17T22:32:20.481Z,69.60
2018-09-17T22:34:51.315Z,69.30
2018-09-17T22:37:22.160Z,69.10
2018-09-17T22:39:53.073Z,69.10
2018-09-17T22:42:24.209Z,69.60
2018-09-17T22:44:55.045Z,70.00
2018-09-17T22:47:25.908Z,69.60
2018-09-17T22:49:56.770Z,70.00
2018-09-17T22:52:27.664Z,69.60
2018-09-17T22:54:58.505Z,69.50
2018-09-17T22:57:29.405Z,70.00
2018-09-17T23:00:00.214Z,68.50
2018-09-17T23:02:32.036Z,69.90
2018-09-17T23:05:03.056Z,70.00
2018-09-17T23:07:33.974Z,69.80
2018-09-17T23:10:05.731Z,69.40
2018-09-17T23:12:36.593Z,69.80
2018-09-17T23:15:07.500Z,69.70
2018-09-17T23:17:38.275Z,70.70
2018-09-17T23:20:09.132Z,69.70
2018-09-17T23:22:40.080Z,69.50
2018-09-17T23:25:11.000Z,69.90
2018-09-17T23:27:41.814Z,69.80
2018-09-17T23:30:12.869Z,70.60
2018-09-17T23:32:43.742Z,71.00
2018-09-17T23:35:15.319Z,71.50
2018-09-17T23:37:46.136Z,71.50
2018-09-17T23:40:16.996Z,71.40
2018-09-17T23:42:47.817Z,71.10
2018-09-17T23:45:19.224Z,71.10
2018-09-17T23:47:50.030Z,71.10
2018-09-17T23:50:20.972Z,71.00
2018-09-17T23:52:51.900Z,71.60
2018-09-17T23:55:22.764Z,71.30
2018-09-17T23:57:53.658Z,71.30
